Time;durP1;ratioP1;P1;durP2;ratioP2;P2;SDS_P1;SDS_P2;PMS_P1;PMS_P2;Temp;Humidity;BMP_temperature;BMP_pressure;BME280_temperature;BME280_humidity;BME280_pressure;Samples;Min_cycle;Max_cycle;Signal;HPM_P1;HPM_P2
2023/05/09 00:01:57;;;;;;;4.72;3.80;;;;;;;14.90;65.62;94922.69;4211835;28;20406;-61
2023/05/09 00:03:59;;;;;;;4.30;3.78;;;;;;;14.88;65.40;94926.53;4204819;28;20655;-59
2023/05/09 00:06:01;;;;;;;5.65;3.70;;;;;;;14.86;65.47;94923.25;4226627;28;20047;-59
2023/05/09 00:08:03;;;;;;;4.15;3.38;;;;;;;14.80;65.59;94924.81;4216342;28;20048;-57
2023/05/09 00:10:05;;;;;;;3.90;3.50;;;;;;;14.80;65.99;94922.16;4226997;28;20074;-60
2023/05/09 00:12:07;;;;;;;3.92;3.53;;;;;;;14.78;65.91;94913.63;4225577;28;20043;-58
2023/05/09 00:14:11;;;;;;;5.18;3.78;;;;;;;14.77;65.74;94919.06;4213965;28;20040;-58
2023/05/09 00:16:13;;;;;;;4.07;3.33;;;;;;;14.80;65.78;94922.16;4223489;28;20627;-59
2023/05/09 00:18:16;;;;;;;4.40;3.42;;;;;;;14.81;65.61;94920.34;4220156;28;20151;-58
2023/05/09 00:20:18;;;;;;;3.88;3.13;;;;;;;14.82;65.62;94919.34;4225625;28;20074;-59
2023/05/09 00:22:21;;;;;;;3.88;3.47;;;;;;;14.82;65.47;94917.53;4223657;28;20381;-60
2023/05/09 00:24:22;;;;;;;4.00;3.60;;;;;;;14.81;65.49;94920.34;4214208;28;20060;-58
2023/05/09 00:26:25;;;;;;;6.32;3.45;;;;;;;14.81;65.35;94910.59;4223329;28;20528;-60
2023/05/09 00:28:26;;;;;;;5.53;3.38;;;;;;;14.82;65.34;94912.25;4224614;28;20047;-59
2023/05/09 00:30:28;;;;;;;4.88;4.07;;;;;;;14.84;65.50;94912.06;4224872;28;20050;-58
2023/05/09 00:32:31;;;;;;;8.50;4.18;;;;;;;14.83;65.32;94913.88;4215997;28;20047;-60
2023/05/09 00:34:33;;;;;;;5.30;3.75;;;;;;;14.80;65.41;94908.97;4227665;28;20130;-63
2023/05/09 00:36:35;;;;;;;6.57;3.42;;;;;;;14.78;65.17;94905.69;4225961;28;20111;-58
2023/05/09 00:38:37;;;;;;;3.50;3.20;;;;;;;14.76;65.34;94909.53;4225253;28;20425;-60
2023/05/09 00:40:38;;;;;;;5.05;3.67;;;;;;;14.74;65.24;94904.41;4226967;28;20473;-60
2023/05/09 00:42:40;;;;;;;5.43;3.55;;;;;;;14.74;65.25;94907.06;4225377;28;20123;-58
2023/05/09 00:44:41;;;;;;;4.78;3.83;;;;;;;14.74;65.34;94907.06;4221009;28;20121;-59
2023/05/09 00:46:43;;;;;;;3.92;3.53;;;;;;;14.69;65.10;94902.31;4211063;28;20113;-60
2023/05/09 00:48:45;;;;;;;3.97;3.53;;;;;;;14.47;65.03;94903.94;4220740;28;20055;-58
2023/05/09 00:50:51;;;;;;;4.78;3.80;;;;;;;14.38;65.58;94907.66;4220591;28;20048;-59
2023/05/09 00:52:53;;;;;;;4.03;3.55;;;;;;;14.42;65.82;94911.59;4220550;28;20456;-59
2023/05/09 00:54:55;;;;;;;7.15;4.03;;;;;;;14.50;65.52;94905.44;4212041;28;20070;-59
2023/05/09 00:56:56;;;;;;;4.03;3.50;;;;;;;14.58;65.47;94899.28;4219372;28;20043;-59
2023/05/09 00:58:58;;;;;;;5.28;3.60;;;;;;;14.58;65.45;94901.94;4224306;28;20051;-60
2023/05/09 01:01:01;;;;;;;4.35;3.88;;;;;;;14.59;65.49;94901.75;4212697;28;20064;-59
2023/05/09 01:03:03;;;;;;;5.10;3.88;;;;;;;14.62;65.52;94906.66;4214214;28;20393;-60
2023/05/09 01:05:05;;;;;;;4.78;3.80;;;;;;;14.62;65.78;94904.03;4214837;28;20051;-61
2023/05/09 01:07:34;;;;;;;4.65;3.60;;;;;;;14.63;65.43;94899.59;4210003;28;20117;-59
2023/05/09 01:09:48;;;;;;;3.63;3.33;;;;;;;14.65;65.33;94900.22;4225868;27;20044;-58
2023/05/09 01:11:58;;;;;;;4.40;3.67;;;;;;;14.62;65.27;94893.47;4215838;28;20056;-58
2023/05/09 01:14:08;;;;;;;4.70;3.80;;;;;;;14.62;65.59;94896.13;4205567;28;20179;-59
2023/05/09 01:16:20;;;;;;;6.63;4.05;;;;;;;14.59;65.54;94899.13;4219610;28;20050;-59
2023/05/09 01:18:39;;;;;;;5.18;3.72;;;;;;;14.56;65.82;94903.91;4224367;28;20054;-59
2023/05/09 01:20:44;;;;;;;4.00;3.60;;;;;;;14.51;65.92;94899.97;4216382;28;20047;-59
2023/05/09 01:22:54;;;;;;;6.22;3.60;;;;;;;14.46;65.88;94893.59;4223197;28;20108;-59
2023/05/09 01:25:05;;;;;;;4.10;3.70;;;;;;;14.42;66.12;94900.22;4209390;28;20082;-60
2023/05/09 01:27:13;;;;;;;5.40;3.85;;;;;;;14.42;65.96;94894.97;4224902;28;20051;-59
2023/05/09 01:29:43;;;;;;;4.60;3.67;;;;;;;14.42;65.69;94900.22;4217367;28;20135;-59
2023/05/09 01:31:45;;;;;;;5.85;3.83;;;;;;;14.39;65.68;94901.41;4224987;28;20075;-58
2023/05/09 01:33:51;;;;;;;4.10;3.58;;;;;;;14.40;65.72;94899.59;4212867;28;20589;-59
2023/05/09 01:35:58;;;;;;;5.07;3.95;;;;;;;14.39;65.51;94896.13;4224808;28;20067;-57
2023/05/09 01:38:01;;;;;;;4.97;3.90;;;;;;;14.39;65.74;94898.78;4216788;28;20054;-59
2023/05/09 01:40:07;;;;;;;5.30;3.90;;;;;;;14.41;65.45;94891.50;4221184;28;20071;-61
2023/05/09 01:42:10;;;;;;;4.75;3.97;;;;;;;14.37;65.68;94903.41;4225634;28;20040;-59
2023/05/09 01:44:12;;;;;;;5.68;3.70;;;;;;;14.35;66.00;94897.50;4225102;28;20440;-60
2023/05/09 01:46:16;;;;;;;4.50;3.97;;;;;;;14.36;65.65;94893.84;4224825;28;20143;-56
2023/05/09 01:48:19;;;;;;;5.07;4.00;;;;;;;14.18;66.00;94899.44;4224334;28;20058;-58
2023/05/09 01:50:22;;;;;;;6.63;3.95;;;;;;;13.91;66.91;94906.84;4213317;28;20104;-57
2023/05/09 01:52:24;;;;;;;5.57;4.32;;;;;;;13.83;67.15;94906.91;4225011;28;20047;-58
2023/05/09 01:54:26;;;;;;;6.57;4.25;;;;;;;13.85;67.16;94918.09;4225277;28;20050;-60
2023/05/09 01:56:28;;;;;;;4.70;4.10;;;;;;;13.91;67.41;94914.72;4222638;28;20147;-59
2023/05/09 01:58:31;;;;;;;5.55;3.90;;;;;;;14.04;67.03;94916.78;4225966;28;20078;-58
2023/05/09 02:00:33;;;;;;;4.38;3.80;;;;;;;14.13;66.56;94913.13;4225456;28;20047;-62
2023/05/09 02:02:35;;;;;;;5.40;3.90;;;;;;;14.22;66.50;94911.25;4222268;28;20051;-60
2023/05/09 02:04:37;;;;;;;5.00;4.05;;;;;;;14.28;66.26;94905.28;4219601;28;20097;-60
2023/05/09 02:06:39;;;;;;;5.93;4.25;;;;;;;14.31;66.24;94898.84;4224772;28;20093;-58
2023/05/09 02:08:42;;;;;;;5.95;4.28;;;;;;;14.37;66.16;94906.03;4210689;28;20044;-57
2023/05/09 02:10:45;;;;;;;5.05;4.00;;;;;;;14.40;66.10;94907.50;4215850;28;20371;-61
2023/05/09 02:12:46;;;;;;;6.40;4.20;;;;;;;14.39;66.26;94909.31;4225878;28;20511;-60
2023/05/09 02:14:49;;;;;;;4.85;4.18;;;;;;;14.42;65.67;94906.31;4217472;28;20052;-57
2023/05/09 02:16:50;;;;;;;4.70;4.07;;;;;;;14.47;65.59;94903.94;4227728;28;20059;-60
2023/05/09 02:18:52;;;;;;;4.82;4.35;;;;;;;14.49;65.43;94901.16;4223330;28;20079;-60
2023/05/09 02:20:53;;;;;;;4.53;3.95;;;;;;;14.47;65.57;94903.94;4222045;28;20048;-59
2023/05/09 02:22:55;;;;;;;5.10;4.25;;;;;;;14.45;65.40;94899.84;4227712;28;20055;-60
2023/05/09 02:24:57;;;;;;;5.28;4.20;;;;;;;14.40;65.00;94902.22;4228199;28;20048;-59
2023/05/09 02:27:01;;;;;;;5.25;4.40;;;;;;;14.36;65.19;94906.22;4223733;28;20048;-58
2023/05/09 02:29:05;;;;;;;4.75;4.13;;;;;;;14.29;65.62;94908.72;4213405;28;20055;-61
2023/05/09 02:31:06;;;;;;;;;;;;;;;14.27;65.69;94906.25;4206714;28;20143;-58
2023/05/09 02:33:10;;;;;;;6.07;4.05;;;;;;;14.22;65.71;94905.97;4212742;28;20023;-60
2023/05/09 02:35:12;;;;;;;;;;;;;;;14.21;65.85;94899.06;4214665;28;20052;-60
2023/05/09 02:37:14;;;;;;;7.95;5.85;;;;;;;14.06;66.21;94906.09;4213024;28;19942;-59
2023/05/09 02:39:16;;;;;;;6.35;4.65;;;;;;;14.03;66.50;94906.47;4213148;28;20048;-60
2023/05/09 02:41:18;;;;;;;7.40;5.38;;;;;;;13.89;66.80;94911.47;4212694;28;20055;-59
2023/05/09 02:43:20;;;;;;;7.68;5.30;;;;;;;13.77;67.44;94904.16;4215418;28;20074;-59
2023/05/09 02:45:22;;;;;;;5.55;4.70;;;;;;;13.42;67.88;94901.84;4213098;28;20051;-59
2023/05/09 02:47:24;;;;;;;6.28;4.95;;;;;;;13.42;68.25;94904.50;4204885;28;20491;-56
2023/05/09 02:49:26;;;;;;;5.75;4.90;;;;;;;13.27;69.31;94903.50;4215722;27;20549;-59
2023/05/09 02:51:33;;;;;;;6.65;5.00;;;;;;;13.21;69.60;94902.41;4212413;28;20055;-57
2023/05/09 02:53:34;;;;;;;6.85;5.18;;;;;;;13.13;70.04;94901.59;4212910;28;20116;-57
2023/05/09 02:55:36;;;;;;;5.40;4.90;;;;;;;13.24;69.89;94904.69;4215550;28;20109;-59
2023/05/09 02:57:38;;;;;;;5.72;4.82;;;;;;;13.25;69.63;94908.13;4213803;28;20051;-61
2023/05/09 02:59:39;;;;;;;7.88;5.40;;;;;;;13.34;69.59;94906.34;4214076;28;20072;-59
2023/05/09 03:01:41;;;;;;;5.57;4.65;;;;;;;13.39;68.95;94899.56;4213206;28;20064;-60
2023/05/09 03:03:43;;;;;;;7.10;5.65;;;;;;;13.44;69.04;94907.78;4219841;28;20127;-59
2023/05/09 03:05:45;;;;;;;6.53;5.28;;;;;;;13.41;68.87;94913.38;4214311;28;20040;-58
2023/05/09 03:07:47;;;;;;;8.05;5.28;;;;;;;13.44;69.29;94909.56;4213737;28;20055;-58
2023/05/09 03:09:48;;;;;;;8.45;4.88;;;;;;;13.51;69.14;94916.63;4215440;28;20460;-60
2023/05/09 03:11:50;;;;;;;8.35;5.15;;;;;;;13.60;68.70;94913.94;4212818;28;20163;-60
2023/05/09 03:13:52;;;;;;;11.60;5.50;;;;;;;13.56;68.67;94915.28;4223437;28;20079;-60
2023/05/09 03:15:53;;;;;;;6.10;5.10;;;;;;;13.56;68.81;94910.84;4212658;28;20437;-58
2023/05/09 03:17:55;;;;;;;6.40;5.15;;;;;;;13.60;68.85;94917.41;4222512;28;20086;-57
2023/05/09 03:19:57;;;;;;;6.20;5.07;;;;;;;13.55;68.89;94918.88;4223879;28;20147;-60
2023/05/09 03:21:58;;;;;;;10.55;5.15;;;;;;;13.52;68.86;94918.25;4226002;28;20047;-59
2023/05/09 03:24:00;;;;;;;7.10;5.35;;;;;;;13.42;69.62;94941.34;4227734;28;20070;-56
2023/05/09 03:26:02;;;;;;;8.38;5.95;;;;;;;13.40;69.71;94940.69;4228086;27;20486;-56
2023/05/09 03:28:04;;;;;;;7.70;5.95;;;;;;;13.11;70.78;94947.28;4214508;28;20084;-58
2023/05/09 03:30:06;;;;;;;8.30;5.70;;;;;;;13.07;71.12;94943.38;4228399;28;20105;-57
2023/05/09 03:32:08;;;;;;;8.27;6.50;;;;;;;12.94;71.67;94948.31;4216448;28;20043;-58
2023/05/09 03:34:13;;;;;;;7.78;6.20;;;;;;;12.96;71.49;94943.72;4228178;28;20058;-58
2023/05/09 03:36:16;;;;;;;8.18;6.95;;;;;;;13.05;71.88;94947.16;4224916;28;20044;-58
2023/05/09 03:38:17;;;;;;;9.85;6.30;;;;;;;13.05;71.92;94944.53;4223366;28;20052;-60
2023/05/09 03:40:19;;;;;;;7.82;6.55;;;;;;;13.18;71.87;94951.88;4221376;28;20093;-60
2023/05/09 03:42:21;;;;;;;8.25;6.40;;;;;;;13.29;71.53;94952.41;4228143;28;20047;-59
2023/05/09 03:44:23;;;;;;;9.32;6.45;;;;;;;13.35;71.40;94942.97;4214724;28;20051;-61
2023/05/09 03:46:24;;;;;;;12.27;6.60;;;;;;;13.40;71.18;94950.38;4227440;28;20433;-59
2023/05/09 03:48:26;;;;;;;8.07;6.72;;;;;;;13.42;71.16;94949.22;4227482;27;20528;-60
2023/05/09 03:50:28;;;;;;;7.70;5.90;;;;;;;13.46;70.97;94957.59;4227372;28;20047;-62
2023/05/09 03:52:30;;;;;;;7.35;6.30;;;;;;;13.44;70.75;94955.16;4223909;28;20048;-62
2023/05/09 03:54:31;;;;;;;8.00;5.80;;;;;;;13.42;70.41;94948.38;4212301;28;20044;-58
2023/05/09 03:56:33;;;;;;;7.10;5.35;;;;;;;13.42;70.41;94957.13;4212874;28;20100;-61
2023/05/09 03:58:34;;;;;;;9.57;6.03;;;;;;;13.50;70.66;94954.44;4211772;28;20075;-61
2023/05/09 04:00:36;;;;;;;10.15;5.88;;;;;;;13.63;70.48;94955.72;4197858;28;20143;-62
2023/05/09 04:02:38;;;;;;;7.05;5.60;;;;;;;13.75;69.97;94961.44;4212576;28;20040;-61
2023/05/09 04:04:40;;;;;;;11.38;5.95;;;;;;;13.82;69.74;94959.75;4215123;28;20169;-60
2023/05/09 04:06:41;;;;;;;6.40;5.32;;;;;;;13.87;69.17;94967.94;4202289;28;20390;-61
2023/05/09 04:08:43;;;;;;;6.45;5.07;;;;;;;13.88;68.58;94959.88;4227725;28;20138;-61
2023/05/09 04:10:45;;;;;;;11.18;5.22;;;;;;;13.86;69.13;94964.47;4211339;28;20056;-61
2023/05/09 04:12:47;;;;;;;8.35;5.70;;;;;;;13.85;69.01;94957.59;4226043;28;20114;-61
2023/05/09 04:14:48;;;;;;;7.15;5.13;;;;;;;13.91;68.96;94956.88;4228077;28;20108;-63
2023/05/09 04:16:50;;;;;;;7.13;5.40;;;;;;;13.95;68.65;94953.91;4226928;28;20047;-61
2023/05/09 04:18:51;;;;;;;6.38;5.78;;;;;;;13.95;68.87;94956.53;4227095;28;20047;-60
2023/05/09 04:20:53;;;;;;;7.47;5.72;;;;;;;13.93;68.78;94954.06;4228144;28;20079;-61
2023/05/09 04:22:55;;;;;;;6.97;5.35;;;;;;;13.92;69.02;94963.78;4226582;28;20087;-61
2023/05/09 04:24:56;;;;;;;6.45;5.75;;;;;;;13.97;68.70;94952.75;4225944;28;20043;-61
2023/05/09 04:26:58;;;;;;;8.05;5.72;;;;;;;14.02;68.14;94962.75;4228879;28;20039;-60
2023/05/09 04:28:59;;;;;;;10.05;6.03;;;;;;;14.08;68.30;94964.69;4228235;28;20446;-62
2023/05/09 04:31:01;;;;;;;9.05;5.80;;;;;;;14.18;68.14;94959.22;4216051;28;20660;-60
2023/05/09 04:33:03;;;;;;;8.32;5.72;;;;;;;14.23;68.10;94962.13;4212639;28;21322;-61
2023/05/09 04:35:07;;;;;;;9.13;6.28;;;;;;;14.30;67.56;94961.28;4226529;28;20122;-63
2023/05/09 04:37:08;;;;;;;7.40;5.55;;;;;;;14.29;67.49;94964.06;4226294;28;20451;-61
2023/05/09 04:39:11;;;;;;;8.52;5.32;;;;;;;14.27;67.17;94961.59;4227160;28;20052;-62
2023/05/09 04:41:13;;;;;;;6.88;5.47;;;;;;;14.36;67.34;94966.81;4226876;28;20081;-62
2023/05/09 04:43:14;;;;;;;9.02;5.47;;;;;;;14.43;66.82;94970.38;4221169;28;20051;-61
2023/05/09 04:45:16;;;;;;;6.35;4.70;;;;;;;14.52;66.97;94969.34;4221737;28;20051;-61
2023/05/09 04:47:18;;;;;;;6.65;5.10;;;;;;;14.58;66.44;94963.38;4224020;28;20085;-61
2023/05/09 04:49:20;;;;;;;8.80;5.72;;;;;;;14.47;66.24;94967.22;4203284;28;20541;-61
2023/05/09 04:51:21;;;;;;;7.32;5.45;;;;;;;14.36;66.78;94965.00;4226311;28;20498;-61
2023/05/09 04:53:23;;;;;;;6.65;5.38;;;;;;;14.33;66.99;94966.19;4226861;28;20130;-62
2023/05/09 04:55:25;;;;;;;10.05;5.90;;;;;;;14.31;66.99;94962.91;4225366;28;20051;-62
2023/05/09 04:57:26;;;;;;;10.48;5.85;;;;;;;14.29;67.40;94964.88;4222717;28;20040;-64
2023/05/09 04:59:28;;;;;;;13.73;5.65;;;;;;;14.13;67.94;94963.19;4211690;28;20048;-63
2023/05/09 05:01:30;;;;;;;8.07;5.63;;;;;;;13.89;68.63;94966.75;4223306;28;20047;-63
2023/05/09 05:03:32;;;;;;;10.23;6.35;;;;;;;13.63;69.81;94967.06;4210494;28;20052;-63
2023/05/09 05:05:33;;;;;;;8.80;6.35;;;;;;;13.56;70.04;94963.47;4213746;28;20127;-63
2023/05/09 05:07:38;;;;;;;9.73;6.57;;;;;;;13.44;70.21;94964.81;4210706;28;20490;-61
2023/05/09 05:09:40;;;;;;;10.38;6.45;;;;;;;13.38;70.71;94966.34;4211750;28;20561;-63
2023/05/09 05:11:41;;;;;;;8.60;6.65;;;;;;;13.37;70.79;94959.44;4211271;28;20676;-63
2023/05/09 05:13:59;;;;;;;10.07;6.40;;;;;;;13.45;70.46;94967.28;4215183;28;20047;-63
2023/05/09 05:16:01;;;;;;;14.93;7.90;;;;;;;13.40;71.00;94960.88;4226237;28;20054;-63
2023/05/09 05:18:02;;;;;;;11.68;6.90;;;;;;;13.26;71.15;94962.41;4225234;28;20050;-62
2023/05/09 05:20:05;;;;;;;12.48;6.32;;;;;;;13.25;71.58;94964.22;4211544;28;20703;-62
2023/05/09 05:22:07;;;;;;;9.93;6.05;;;;;;;13.40;71.43;94963.53;4214466;28;20109;-62
2023/05/09 05:24:08;;;;;;;12.98;6.18;;;;;;;13.45;70.04;94964.66;4226598;28;20147;-61
2023/05/09 05:26:10;;;;;;;9.32;5.53;;;;;;;13.35;70.39;94968.47;4220448;28;20074;-62
2023/05/09 05:28:11;;;;;;;9.05;5.53;;;;;;;13.50;69.78;94967.59;4224168;28;20052;-62
2023/05/09 05:30:14;;;;;;;8.07;5.25;;;;;;;13.66;69.14;94963.28;4227194;28;20080;-63
2023/05/09 05:32:16;;;;;;;5.40;4.03;;;;;;;13.77;68.25;94962.09;4220451;28;20067;-62
2023/05/09 05:34:18;;;;;;;5.50;3.83;;;;;;;13.88;66.90;94967.75;4215616;28;20076;-60
2023/05/09 05:36:19;;;;;;;8.88;3.95;;;;;;;13.91;66.74;94971.88;4210171;28;20735;-61
2023/05/09 05:38:21;;;;;;;8.80;3.22;;;;;;;14.02;66.65;94971.47;4211284;28;20055;-64
2023/05/09 05:40:22;;;;;;;5.32;2.83;;;;;;;14.12;65.34;94973.88;4211087;28;20106;-62
2023/05/09 05:42:24;;;;;;;10.65;8.73;;;;;;;14.13;64.41;94965.81;4211707;28;20136;-62
2023/05/09 05:44:26;;;;;;;4.93;3.00;;;;;;;14.14;64.66;94971.91;4224153;28;20073;-61
2023/05/09 05:46:27;;;;;;;3.78;3.00;;;;;;;14.28;65.17;94972.97;4211571;28;20056;-62
2023/05/09 05:48:29;;;;;;;4.13;2.95;;;;;;;14.44;63.99;94966.75;4223221;28;20048;-64
2023/05/09 05:50:31;;;;;;;4.45;2.50;;;;;;;14.57;63.38;94967.03;4231061;28;20089;-61
2023/05/09 05:52:32;;;;;;;3.10;2.38;;;;;;;14.75;63.32;94969.34;4213454;28;20127;-63
2023/05/09 05:54:34;;;;;;;2.70;2.47;;;;;;;14.85;62.82;94964.63;4214909;28;20048;-64
2023/05/09 05:56:35;;;;;;;4.28;2.83;;;;;;;14.80;62.66;94971.44;4214650;28;20531;-62
2023/05/09 05:58:37;;;;;;;3.60;2.80;;;;;;;14.70;62.84;94980.41;4213971;28;20090;-65
2023/05/09 06:00:39;;;;;;;2.90;2.50;;;;;;;14.74;62.95;94979.06;4231510;28;20093;-62
2023/05/09 06:02:46;;;;;;;6.07;2.75;;;;;;;14.79;62.85;94967.97;4221982;28;20048;-70
2023/05/09 06:04:48;;;;;;;6.70;2.28;;;;;;;14.65;63.35;94974.88;4218694;28;20128;-64
2023/05/09 06:06:50;;;;;;;4.13;2.50;;;;;;;14.71;63.85;94974.16;4214958;28;20052;-62
2023/05/09 06:08:51;;;;;;;3.47;2.38;;;;;;;14.86;63.52;94973.38;4218012;28;20101;-62
2023/05/09 06:10:53;;;;;;;4.45;2.63;;;;;;;14.77;63.53;94969.16;4208504;28;20053;-61
2023/05/09 06:12:55;;;;;;;5.25;2.60;;;;;;;14.81;63.66;94973.09;4224980;28;20466;-61
2023/05/09 06:14:56;;;;;;;2.83;2.15;;;;;;;14.94;63.32;94975.94;4230197;28;20115;-61
2023/05/09 06:16:58;;;;;;;4.65;2.53;;;;;;;15.00;63.35;94972.59;4229398;28;20119;-63
2023/05/09 06:19:00;;;;;;;7.18;2.30;;;;;;;15.09;63.09;94968.03;4231742;28;20057;-62
2023/05/09 06:21:02;;;;;;;4.82;2.20;;;;;;;15.17;62.75;94967.16;4230331;28;20082;-63
2023/05/09 06:23:04;;;;;;;3.78;2.45;;;;;;;15.26;62.88;94966.06;4227928;28;20078;-63
2023/05/09 06:25:06;;;;;;;5.88;2.60;;;;;;;15.26;62.07;94966.88;4228507;28;20131;-62
2023/05/09 06:27:11;;;;;;;5.20;2.63;;;;;;;15.25;61.70;94969.69;4228211;28;20243;-64
2023/05/09 06:29:14;;;;;;;4.88;2.67;;;;;;;14.79;61.25;94970.63;4227684;28;20062;-63
2023/05/09 06:31:15;;;;;;;6.55;2.65;;;;;;;14.48;62.12;94968.06;4216305;28;20045;-61
2023/05/09 06:33:17;;;;;;;5.88;2.70;;;;;;;14.52;62.98;94980.69;4202487;28;20417;-64
2023/05/09 06:35:19;;;;;;;3.85;2.22;;;;;;;14.58;62.41;94968.66;4214222;28;20432;-63
2023/05/09 06:37:21;;;;;;;3.65;2.42;;;;;;;14.53;62.47;94973.59;4223596;28;20071;-63
2023/05/09 06:39:22;;;;;;;4.70;2.63;;;;;;;14.46;62.57;94973.50;4225694;27;20083;-61
2023/05/09 06:41:24;;;;;;;4.85;2.17;;;;;;;14.05;62.76;94975.59;4229632;28;20048;-63
2023/05/09 06:43:26;;;;;;;3.20;2.13;;;;;;;13.92;63.31;94976.97;4210469;28;20059;-62
2023/05/09 06:45:29;;;;;;;6.03;2.45;;;;;;;13.80;63.50;94975.69;4227768;28;20055;-63
2023/05/09 06:47:31;;;;;;;10.25;2.70;;;;;;;13.71;64.42;94982.81;4214677;28;20094;-64
2023/05/09 06:49:32;;;;;;;4.45;2.20;;;;;;;13.88;63.93;94972.22;4229390;28;20043;-64
2023/05/09 06:51:35;;;;;;;5.13;2.70;;;;;;;13.99;64.11;94971.00;4227886;28;20563;-62
2023/05/09 06:53:37;;;;;;;5.43;2.22;;;;;;;14.24;63.64;94974.28;4226135;27;20051;-60
2023/05/09 06:55:39;;;;;;;6.22;2.88;;;;;;;14.45;63.52;94971.03;4226471;28;20482;-60
2023/05/09 06:57:40;;;;;;;4.18;2.50;;;;;;;14.48;62.46;94970.69;4226675;28;20104;-61
2023/05/09 06:59:43;;;;;;;4.10;2.40;;;;;;;14.57;62.37;94974.94;4227350;28;20040;-60
2023/05/09 07:01:45;;;;;;;3.40;2.00;;;;;;;14.75;62.00;94971.97;4225360;28;20131;-63
2023/05/09 07:03:46;;;;;;;3.55;1.55;;;;;;;14.90;61.36;94974.66;4223366;28;20200;-63
2023/05/09 07:05:48;;;;;;;5.15;2.10;;;;;;;15.00;60.31;94961.22;4222566;28;20051;-61
2023/05/09 07:07:50;;;;;;;4.55;1.70;;;;;;;15.03;60.42;94964.28;4217286;27;20044;-60
2023/05/09 07:09:52;;;;;;;3.05;1.42;;;;;;;15.14;60.32;94963.03;4213555;28;20096;-60
2023/05/09 07:12:04;;;;;;;3.33;1.85;;;;;;;15.04;60.14;94963.31;4216992;28;20048;-61
2023/05/09 07:14:06;;;;;;;3.00;1.67;;;;;;;14.95;60.16;94964.41;4229256;28;20054;-59
2023/05/09 07:16:07;;;;;;;4.95;2.30;;;;;;;15.04;60.44;94963.31;4228419;28;20047;-60
2023/05/09 07:18:09;;;;;;;2.17;1.60;;;;;;;14.95;60.13;94953.84;4215742;28;20568;-63
2023/05/09 07:20:11;;;;;;;4.80;1.83;;;;;;;14.99;60.35;94970.13;4226329;28;20561;-63
2023/05/09 07:22:13;;;;;;;3.25;1.73;;;;;;;15.17;60.30;94967.16;4223440;28;20077;-63
2023/05/09 07:24:15;;;;;;;3.28;2.00;;;;;;;15.25;59.57;94969.69;4228107;28;20055;-63
2023/05/09 07:26:16;;;;;;;2.80;2.25;;;;;;;15.29;59.36;94974.44;4227087;28;20052;-62
2023/05/09 07:28:18;;;;;;;3.28;2.20;;;;;;;15.08;59.77;94975.16;4224909;28;20109;-60
2023/05/09 07:30:20;;;;;;;4.43;2.20;;;;;;;15.05;59.50;94970.22;4213825;28;20048;-61
2023/05/09 07:32:21;;;;;;;4.85;1.92;;;;;;;14.92;59.92;94968.19;4221533;28;20469;-64
2023/05/09 07:34:24;;;;;;;3.35;2.20;;;;;;;14.95;60.06;94969.69;4215646;28;20803;-62
2023/05/09 07:36:26;;;;;;;4.03;2.30;;;;;;;14.95;59.54;94969.69;4215689;28;20086;-62
2023/05/09 07:38:27;;;;;;;4.97;2.10;;;;;;;14.96;60.27;94971.31;4221472;28;20063;-60
2023/05/09 07:40:29;;;;;;;3.38;2.20;;;;;;;15.17;60.44;94967.16;4221713;28;20075;-63
2023/05/09 07:42:31;;;;;;;7.97;2.45;;;;;;;15.28;59.69;94974.63;4225660;28;20055;-64
2023/05/09 07:44:33;;;;;;;3.15;2.15;;;;;;;15.17;59.11;94977.72;4217490;28;20047;-63
2023/05/09 07:46:40;;;;;;;5.22;2.40;;;;;;;15.12;59.28;94970.31;4220570;27;20458;-65
2023/05/09 07:48:42;;;;;;;5.72;2.33;;;;;;;15.05;59.38;94966.75;4220559;28;20124;-63
2023/05/09 07:50:44;;;;;;;3.60;2.10;;;;;;;14.84;59.48;94965.66;4214517;28;20367;-64
2023/05/09 07:52:45;;;;;;;3.10;2.20;;;;;;;14.79;59.43;94975.91;4226164;28;20486;-62
2023/05/09 07:54:47;;;;;;;3.67;2.60;;;;;;;14.69;60.33;94975.31;4217989;28;20442;-61
2023/05/09 07:56:49;;;;;;;3.03;1.92;;;;;;;14.54;60.14;94980.53;4212908;28;20056;-63
2023/05/09 07:58:51;;;;;;;6.05;2.63;;;;;;;14.66;60.71;94971.22;4213404;28;20112;-63
2023/05/09 08:00:56;;;;;;;3.78;2.38;;;;;;;14.90;60.63;94972.81;4212320;28;20125;-62
2023/05/09 08:02:57;;;;;;;4.88;2.05;;;;;;;14.98;60.38;94969.31;4213878;28;20406;-62
2023/05/09 08:04:59;;;;;;;5.07;2.38;;;;;;;15.03;59.67;94961.66;4214844;28;20044;-64
2023/05/09 08:07:02;;;;;;;3.63;2.53;;;;;;;14.97;59.07;94958.91;4227724;28;20632;-61
2023/05/09 08:09:04;;;;;;;3.67;2.03;;;;;;;15.13;59.25;94956.94;4218060;27;20497;-60
2023/05/09 08:11:06;;;;;;;3.60;2.15;;;;;;;15.38;58.48;94955.84;4224736;28;20047;-60
2023/05/09 08:13:08;;;;;;;5.88;2.30;;;;;;;15.63;58.63;94962.50;4228117;28;20055;-59
2023/05/09 08:15:10;;;;;;;7.05;2.47;;;;;;;15.79;58.80;94971.25;4225638;28;20044;-61
2023/05/09 08:17:12;;;;;;;5.05;1.77;;;;;;;15.88;58.02;94968.31;4211065;28;20488;-60
2023/05/09 08:19:13;;;;;;;7.38;2.17;;;;;;;15.91;57.81;94972.41;4220779;28;20105;-61
2023/05/09 08:21:15;;;;;;;4.80;1.95;;;;;;;15.90;57.41;94961.03;4215604;28;20137;-59
2023/05/09 08:23:17;;;;;;;7.15;2.00;;;;;;;15.79;57.89;94965.97;4223014;28;20047;-61
2023/05/09 08:25:19;;;;;;;5.07;2.10;;;;;;;15.43;58.20;94964.06;4212853;28;20079;-62
2023/05/09 08:27:21;;;;;;;2.72;1.73;;;;;;;15.27;58.72;94967.69;4212569;28;20409;-61
2023/05/09 08:29:23;;;;;;;4.65;2.00;;;;;;;15.01;59.04;94961.00;4212241;28;20516;-61
2023/05/09 08:31:25;;;;;;;4.38;2.22;;;;;;;15.11;59.46;94966.84;4206311;28;20272;-61
2023/05/09 08:33:27;;;;;;;3.38;2.30;;;;;;;15.41;59.86;94958.16;4211503;28;20055;-60
2023/05/09 08:35:29;;;;;;;4.25;1.92;;;;;;;15.87;59.12;94960.56;4213094;28;20465;-60
2023/05/09 08:37:30;;;;;;;2.72;2.08;;;;;;;16.10;56.16;94963.09;4211276;28;20093;-61
2023/05/09 08:39:33;;;;;;;4.45;1.63;;;;;;;16.19;56.36;94961.97;4212225;28;20056;-62
2023/05/09 08:41:35;;;;;;;5.10;1.60;;;;;;;16.09;56.42;94966.72;4212676;28;20083;-62
2023/05/09 08:43:38;;;;;;;4.78;1.67;;;;;;;15.96;57.24;94960.31;4211213;28;20044;-62
2023/05/09 08:45:51;;;;;;;2.83;1.80;;;;;;;16.16;56.70;94959.69;4212219;28;20048;-62
2023/05/09 08:47:53;;;;;;;3.65;1.55;;;;;;;16.04;56.72;94959.34;4211541;28;20695;-64
2023/05/09 08:49:55;;;;;;;3.65;1.50;;;;;;;16.08;57.23;94954.53;4214058;28;20056;-62
2023/05/09 08:51:56;;;;;;;3.00;1.60;;;;;;;15.88;56.63;94956.94;4213110;28;20052;-62
2023/05/09 08:53:58;;;;;;;5.55;1.45;;;;;;;15.45;57.09;94954.97;4213789;28;20058;-62
2023/05/09 08:56:02;;;;;;;2.67;1.80;;;;;;;15.27;57.42;94959.78;4213800;28;20090;-63
2023/05/09 08:58:04;;;;;;;4.57;3.65;;;;;;;15.28;58.51;94959.59;4210982;28;20447;-62
2023/05/09 09:00:10;;;;;;;3.13;1.90;;;;;;;15.41;58.77;94950.22;4211614;28;20494;-63
2023/05/09 09:02:13;;;;;;;3.53;1.63;;;;;;;15.45;58.19;94957.59;4214897;28;20043;-64
2023/05/09 09:04:15;;;;;;;4.25;1.50;;;;;;;15.35;58.32;94949.13;4216327;28;20051;-60
2023/05/09 09:06:17;;;;;;;5.13;2.15;;;;;;;15.03;59.03;94959.03;4210729;28;20101;-63
2023/05/09 09:08:19;;;;;;;4.00;1.77;;;;;;;14.76;59.90;94955.16;4211487;28;20047;-64
2023/05/09 09:10:24;;;;;;;3.35;1.45;;;;;;;14.58;60.09;94954.66;4205160;28;20132;-62
2023/05/09 09:12:26;;;;;;;3.58;1.80;;;;;;;14.70;60.44;94956.69;4210534;28;20058;-62
2023/05/09 09:14:30;;;;;;;3.65;1.70;;;;;;;14.80;59.98;94955.63;4213724;28;20083;-63
2023/05/09 09:16:32;;;;;;;8.85;2.08;;;;;;;14.92;59.50;94954.19;4209709;28;20055;-64
2023/05/09 09:18:34;;;;;;;4.15;1.88;;;;;;;15.00;59.17;94956.75;4219562;28;20425;-62
2023/05/09 09:20:40;;;;;;;4.07;1.63;;;;;;;14.41;60.33;94964.47;4216238;28;20043;-62
2023/05/09 09:22:43;;;;;;;2.75;1.50;;;;;;;14.17;61.02;94953.09;4225064;28;20047;-63
2023/05/09 09:24:44;;;;;;;2.22;1.50;;;;;;;14.14;61.30;94951.63;4221961;28;20093;-62
2023/05/09 09:26:47;;;;;;;5.38;1.60;;;;;;;13.92;61.90;94957.72;4224991;28;20070;-60
2023/05/09 09:28:49;;;;;;;4.13;1.60;;;;;;;13.96;61.78;94958.16;4224884;28;20051;-64
2023/05/09 09:30:51;;;;;;;3.85;1.33;;;;;;;13.85;61.78;94956.75;4221799;28;20559;-61
2023/05/09 09:32:52;;;;;;;4.03;1.10;;;;;;;13.38;62.66;94968.13;4220274;28;20651;-62
2023/05/09 09:35:05;;;;;;;3.17;1.23;;;;;;;13.59;62.71;94962.31;4225472;28;20127;-63
2023/05/09 09:37:07;;;;;;;2.78;1.50;;;;;;;13.51;62.47;94964.00;4220597;28;20454;-63
2023/05/09 09:39:12;;;;;;;5.18;1.77;;;;;;;13.71;62.72;94966.22;4221491;28;20087;-63